createdAt,value
2019-03-08T00:02:24.639Z,8.10
2019-03-08T00:04:53.015Z,8.10
2019-03-08T00:07:21.401Z,8.10
2019-03-08T00:09:49.812Z,8.10
2019-03-08T00:12:18.198Z,8.10
2019-03-08T00:14:46.566Z,8.10
2019-03-08T00:17:14.939Z,8.10
2019-03-08T00:19:43.321Z,8.10
2019-03-08T00:22:11.691Z,8.10
2019-03-08T00:24:40.082Z,8.20
2019-03-08T00:27:08.527Z,8.20
2019-03-08T00:29:36.917Z,8.20
2019-03-08T00:32:05.351Z,8.20
2019-03-08T00:34:33.762Z,8.30
2019-03-08T00:37:02.136Z,8.20
2019-03-08T00:39:30.520Z,8.30
2019-03-08T00:41:58.897Z,8.20
2019-03-08T00:44:27.284Z,8.20
2019-03-08T00:46:55.659Z,8.30
2019-03-08T00:49:24.052Z,8.30
2019-03-08T00:51:52.438Z,8.30
2019-03-08T00:54:20.888Z,8.20
2019-03-08T00:56:49.270Z,8.20
2019-03-08T00:59:17.964Z,8.20
2019-03-08T01:01:46.335Z,8.30
2019-03-08T01:04:14.791Z,8.30
2019-03-08T01:06:43.204Z,8.30
2019-03-08T01:09:11.715Z,8.30
2019-03-08T01:11:40.164Z,8.30
2019-03-08T01:14:08.553Z,8.30
2019-03-08T01:16:37.241Z,8.30
2019-03-08T01:19:05.629Z,8.30
2019-03-08T01:21:34.007Z,8.30
2019-03-08T01:24:02.372Z,8.30
2019-03-08T01:26:31.035Z,8.30
2019-03-08T01:28:59.559Z,8.40
2019-03-08T01:31:27.943Z,8.40
2019-03-08T01:33:56.319Z,8.40
2019-03-08T01:36:24.695Z,8.40
2019-03-08T01:38:53.076Z,8.30
2019-03-08T01:41:21.455Z,8.40
2019-03-08T01:43:49.835Z,8.30
2019-03-08T01:46:18.228Z,8.30
2019-03-08T01:48:46.628Z,8.30
2019-03-08T01:51:15.016Z,8.30
2019-03-08T01:53:43.392Z,8.30
2019-03-08T01:56:11.860Z,8.30
2019-03-08T01:58:40.229Z,8.30
2019-03-08T02:01:08.688Z,8.30
2019-03-08T02:03:37.064Z,8.30
2019-03-08T02:06:05.455Z,8.30
2019-03-08T02:08:33.835Z,8.30
2019-03-08T02:11:02.299Z,8.30
2019-03-08T02:13:30.671Z,8.30
2019-03-08T02:15:59.071Z,8.30
2019-03-08T02:18:27.449Z,8.30
2019-03-08T02:20:55.833Z,8.30
2019-03-08T02:23:24.208Z,8.30
2019-03-08T02:25:52.771Z,8.30
2019-03-08T02:28:21.145Z,8.30
2019-03-08T02:30:49.531Z,8.30
2019-03-08T02:33:17.899Z,8.30
2019-03-08T02:35:46.306Z,8.30
2019-03-08T02:38:14.675Z,8.20
2019-03-08T02:40:43.324Z,8.30
2019-03-08T02:43:13.944Z,8.20
2019-03-08T02:45:41.611Z,8.20
2019-03-08T02:48:09.995Z,8.20
2019-03-08T02:50:38.372Z,8.20
2019-03-08T02:53:06.755Z,8.20
2019-03-08T02:55:35.479Z,8.20
2019-03-08T02:58:04.392Z,8.20
2019-03-08T03:00:35.124Z,8.20
2019-03-08T03:03:03.487Z,8.10
2019-03-08T03:05:31.863Z,8.10
2019-03-08T03:08:00.249Z,8.10
2019-03-08T03:10:28.628Z,8.10
2019-03-08T03:12:57.015Z,8.20
2019-03-08T03:15:25.468Z,8.10
2019-03-08T03:17:53.854Z,8.10
2019-03-08T03:20:22.236Z,8.10
2019-03-08T03:22:50.633Z,8.10
2019-03-08T03:25:18.998Z,8.10
2019-03-08T03:27:47.392Z,8.00
2019-03-08T03:30:20.964Z,8.00
2019-03-08T03:32:49.398Z,8.00
2019-03-08T03:35:17.774Z,8.00
2019-03-08T03:37:46.535Z,8.00
2019-03-08T03:40:16.652Z,7.90
2019-03-08T03:42:45.040Z,7.90
2019-03-08T03:45:20.634Z,7.90
2019-03-08T03:47:49.012Z,7.90
2019-03-08T03:50:18.551Z,7.90
2019-03-08T03:52:47.323Z,7.90
2019-03-08T03:55:17.909Z,7.90
2019-03-08T03:57:45.506Z,7.90
2019-03-08T04:00:21.508Z,7.90
2019-03-08T04:02:49.879Z,7.90
2019-03-08T04:05:18.422Z,7.90
2019-03-08T04:07:46.785Z,7.90
2019-03-08T04:10:16.115Z,7.90
2019-03-08T04:12:44.499Z,7.90
2019-03-08T04:15:20.338Z,7.90
2019-03-08T04:17:48.880Z,7.90
2019-03-08T04:20:18.376Z,7.80
2019-03-08T04:22:46.766Z,7.80
2019-03-08T04:25:15.311Z,7.80
2019-03-08T04:27:43.700Z,7.80
2019-03-08T04:30:17.070Z,7.80
2019-03-08T04:32:45.514Z,7.80
2019-03-08T04:35:13.900Z,7.70
2019-03-08T04:37:42.280Z,7.80
2019-03-08T04:40:12.965Z,7.70
2019-03-08T04:42:41.351Z,7.70
2019-03-08T04:45:12.148Z,7.70
2019-03-08T04:47:40.531Z,7.70
2019-03-08T04:50:10.955Z,7.60
2019-03-08T04:52:39.331Z,7.70
2019-03-08T04:55:11.059Z,7.60
2019-03-08T04:57:39.432Z,7.60
2019-03-08T05:00:11.433Z,7.50
2019-03-08T05:02:39.800Z,7.60
2019-03-08T05:05:08.377Z,7.50
2019-03-08T05:07:36.747Z,7.60
2019-03-08T05:10:08.211Z,7.50
2019-03-08T05:12:36.661Z,7.50
2019-03-08T05:15:06.282Z,7.60
2019-03-08T05:17:34.656Z,7.50
2019-03-08T05:20:03.115Z,7.50
2019-03-08T05:22:31.505Z,7.50
2019-03-08T05:24:59.879Z,7.50
2019-03-08T05:27:28.291Z,7.50
2019-03-08T05:29:56.643Z,7.50
2019-03-08T05:32:25.030Z,7.40
2019-03-08T05:34:53.409Z,7.40
2019-03-08T05:37:22.659Z,7.40
2019-03-08T05:39:51.035Z,7.40
2019-03-08T05:42:19.422Z,7.40
2019-03-08T05:44:47.800Z,7.30
2019-03-08T05:47:16.183Z,7.30
2019-03-08T05:49:44.556Z,7.30
2019-03-08T05:52:12.941Z,7.30
2019-03-08T05:54:41.676Z,7.30
2019-03-08T05:57:10.068Z,7.30
2019-03-08T05:59:38.728Z,7.30
2019-03-08T06:02:07.210Z,7.30
2019-03-08T06:04:35.582Z,7.30
2019-03-08T06:07:04.028Z,7.30
2019-03-08T06:09:32.395Z,7.30
2019-03-08T06:12:00.787Z,7.30
2019-03-08T06:14:29.540Z,7.30
2019-03-08T06:16:58.223Z,7.30
2019-03-08T06:19:26.593Z,7.30
2019-03-08T06:21:54.976Z,7.40
2019-03-08T06:24:23.354Z,7.30
2019-03-08T06:26:51.755Z,7.40
2019-03-08T06:29:20.138Z,7.40
2019-03-08T06:31:48.508Z,7.40
2019-03-08T06:34:16.919Z,7.40
2019-03-08T06:36:45.300Z,7.40
2019-03-08T06:39:13.725Z,7.40
2019-03-08T06:41:42.318Z,7.40
2019-03-08T06:44:10.712Z,7.50
2019-03-08T06:46:39.401Z,7.50
2019-03-08T06:49:07.794Z,7.50
2019-03-08T06:51:36.161Z,7.50
2019-03-08T06:54:04.618Z,7.50
2019-03-08T06:56:32.989Z,7.60
2019-03-08T06:59:03.015Z,7.60
2019-03-08T07:01:32.319Z,7.60
2019-03-08T07:04:00.701Z,7.70
2019-03-08T07:06:29.090Z,7.70
2019-03-08T07:08:57.477Z,7.80
2019-03-08T07:11:25.858Z,7.80
2019-03-08T07:13:54.235Z,7.90
2019-03-08T07:16:22.691Z,7.90
2019-03-08T07:18:51.867Z,8.00
2019-03-08T07:21:27.612Z,8.00
2019-03-08T07:23:57.643Z,8.10
2019-03-08T07:26:43.847Z,8.10
2019-03-08T07:29:16.814Z,8.20
2019-03-08T07:31:46.855Z,8.20
2019-03-08T07:34:20.004Z,8.30
2019-03-08T07:36:56.421Z,8.40
2019-03-08T07:39:32.041Z,8.60
2019-03-08T07:42:18.441Z,8.70
2019-03-08T07:44:53.907Z,8.80
2019-03-08T07:47:29.377Z,8.90
2019-03-08T07:50:05.142Z,8.80
2019-03-08T07:52:51.404Z,8.90
2019-03-08T07:55:30.876Z,9.00
2019-03-08T07:58:17.086Z,9.00
2019-03-08T08:00:53.236Z,8.90
2019-03-08T08:03:28.867Z,9.10
2019-03-08T08:06:04.990Z,9.30
2019-03-08T08:08:37.953Z,9.50
2019-03-08T08:11:10.996Z,9.70
2019-03-08T08:13:41.062Z,9.90
2019-03-08T08:16:27.184Z,9.90
2019-03-08T08:19:03.332Z,9.90
2019-03-08T08:21:36.344Z,10.00
2019-03-08T08:24:09.425Z,10.10
2019-03-08T08:26:51.035Z,10.10
2019-03-08T08:29:23.995Z,10.00
2019-03-08T08:31:54.065Z,10.10
2019-03-08T08:34:24.344Z,10.10
2019-03-08T08:37:06.514Z,10.00
2019-03-08T08:39:48.013Z,10.00
2019-03-08T08:42:35.708Z,10.10
2019-03-08T08:45:14.287Z,10.10
2019-03-08T08:47:56.442Z,10.10
2019-03-08T08:50:42.994Z,10.10
2019-03-08T08:53:18.807Z,10.20
2019-03-08T08:56:05.643Z,10.10
2019-03-08T08:58:52.221Z,10.20
2019-03-08T09:01:22.600Z,10.20
2019-03-08T09:03:58.337Z,10.20
2019-03-08T09:06:44.954Z,10.20
2019-03-08T09:09:15.229Z,10.30
2019-03-08T09:11:52.135Z,10.30
2019-03-08T09:14:22.763Z,10.30
2019-03-08T09:16:54.152Z,10.30
2019-03-08T09:19:33.462Z,10.30
2019-03-08T09:22:18.837Z,10.30
2019-03-08T09:24:48.937Z,10.30
2019-03-08T09:27:22.799Z,10.30
2019-03-08T09:29:52.835Z,10.40
2019-03-08T09:32:23.251Z,10.40
2019-03-08T09:35:08.261Z,10.40
2019-03-08T09:37:41.094Z,10.40
2019-03-08T09:40:20.685Z,10.30
2019-03-08T09:42:50.691Z,10.30
2019-03-08T09:45:20.807Z,10.30
2019-03-08T09:48:07.137Z,10.30
2019-03-08T09:50:43.598Z,10.30
2019-03-08T09:53:13.629Z,10.30
2019-03-08T09:56:01.635Z,10.30
2019-03-08T09:58:31.666Z,10.30
2019-03-08T10:01:16.651Z,10.40
2019-03-08T10:03:46.656Z,10.40
2019-03-08T10:06:29.291Z,10.40
2019-03-08T10:09:02.456Z,10.40
2019-03-08T10:11:32.512Z,10.40
2019-03-08T10:14:18.987Z,10.40
2019-03-08T10:16:51.981Z,10.40
2019-03-08T10:19:41.396Z,10.30
2019-03-08T10:22:26.628Z,10.30
2019-03-08T10:24:56.924Z,10.30
2019-03-08T10:27:43.351Z,10.30
2019-03-08T10:30:22.690Z,10.20
2019-03-08T10:33:01.683Z,10.30
2019-03-08T10:35:37.579Z,10.30
2019-03-08T10:38:22.730Z,10.40
2019-03-08T10:41:06.368Z,10.40
2019-03-08T10:43:41.976Z,10.40
2019-03-08T10:46:27.164Z,10.40
2019-03-08T10:48:57.395Z,10.40
2019-03-08T10:51:33.445Z,10.40
2019-03-08T10:54:06.452Z,10.40
2019-03-08T10:56:52.580Z,10.40
2019-03-08T10:59:25.559Z,10.50
2019-03-08T11:02:04.059Z,10.50
2019-03-08T11:04:36.759Z,10.60
2019-03-08T11:07:06.794Z,10.60
2019-03-08T11:09:54.023Z,10.70
2019-03-08T11:12:36.303Z,10.70
2019-03-08T11:15:25.620Z,10.80
2019-03-08T11:17:55.712Z,10.90
2019-03-08T11:20:28.522Z,11.00
2019-03-08T11:22:58.552Z,11.10
2019-03-08T11:25:34.725Z,11.20
2019-03-08T11:28:21.269Z,11.30
2019-03-08T11:31:06.519Z,11.40
2019-03-08T11:33:54.821Z,11.40
2019-03-08T11:36:27.306Z,11.60
2019-03-08T11:38:57.344Z,11.50
2019-03-08T11:41:27.375Z,11.60
2019-03-08T11:44:13.827Z,11.60
2019-03-08T11:46:43.859Z,11.60
2019-03-08T11:49:26.085Z,11.70
2019-03-08T11:51:58.848Z,11.70
2019-03-08T11:54:40.377Z,11.80
2019-03-08T11:57:13.903Z,11.80
2019-03-08T11:59:45.994Z,11.80
2019-03-08T12:02:25.152Z,12.00
2019-03-08T12:05:03.677Z,12.00
2019-03-08T12:07:39.616Z,12.50
2019-03-08T12:10:14.635Z,12.70
2019-03-08T12:12:53.232Z,12.80
2019-03-08T12:15:25.963Z,12.80
2019-03-08T12:18:01.965Z,12.90
2019-03-08T12:20:37.976Z,12.90
2019-03-08T12:23:17.056Z,12.80
2019-03-08T12:25:52.811Z,12.90
2019-03-08T12:28:22.852Z,12.80
2019-03-08T12:31:01.509Z,12.70
2019-03-08T12:33:37.307Z,12.80
2019-03-08T12:36:10.279Z,12.80
2019-03-08T12:38:46.512Z,12.90
2019-03-08T12:41:22.199Z,13.10
2019-03-08T12:44:08.590Z,13.20
2019-03-08T12:46:38.779Z,13.40
2019-03-08T12:49:08.898Z,13.60
2019-03-08T12:51:48.128Z,13.80
2019-03-08T12:54:21.120Z,14.00
2019-03-08T12:56:57.423Z,14.20
2019-03-08T12:59:43.555Z,14.50
2019-03-08T13:02:28.503Z,14.50
2019-03-08T13:05:14.713Z,14.50
2019-03-08T13:08:02.859Z,14.30
2019-03-08T13:10:31.256Z,14.10
2019-03-08T13:12:59.640Z,14.20
2019-03-08T13:15:28.041Z,14.10
2019-03-08T13:17:56.431Z,14.10
2019-03-08T13:20:24.841Z,14.00
2019-03-08T13:22:53.228Z,14.00
2019-03-08T13:25:21.697Z,14.20
2019-03-08T13:27:50.076Z,14.30
2019-03-08T13:30:21.265Z,14.30
2019-03-08T13:32:49.657Z,14.30
2019-03-08T13:35:18.044Z,14.10
2019-03-08T13:37:46.433Z,14.00
2019-03-08T13:40:16.239Z,14.10
2019-03-08T13:42:44.619Z,14.10
2019-03-08T13:45:16.196Z,14.00
2019-03-08T13:47:44.585Z,14.10
2019-03-08T13:50:14.714Z,14.20
2019-03-08T13:52:43.189Z,14.10
2019-03-08T13:55:14.497Z,14.30
2019-03-08T13:57:43.237Z,14.40
2019-03-08T14:00:17.067Z,14.50
2019-03-08T14:02:45.474Z,14.70
2019-03-08T14:05:14.286Z,14.90
2019-03-08T14:07:42.730Z,15.00
2019-03-08T14:10:19.998Z,15.00
2019-03-08T14:12:48.383Z,15.00
2019-03-08T14:15:17.600Z,15.10
2019-03-08T14:17:45.994Z,15.10
2019-03-08T14:20:26.429Z,15.30
2019-03-08T14:22:54.828Z,15.40
2019-03-08T14:25:23.217Z,15.50
2019-03-08T14:27:51.614Z,15.40
2019-03-08T14:30:32.075Z,15.60
2019-03-08T14:33:01.545Z,15.60
2019-03-08T14:35:30.980Z,15.60
2019-03-08T14:37:59.487Z,15.80
2019-03-08T14:40:32.440Z,15.80
2019-03-08T14:43:17.983Z,15.80
2019-03-08T14:46:04.415Z,15.90
2019-03-08T14:48:32.783Z,16.00
2019-03-08T14:51:01.258Z,15.90
2019-03-08T14:53:32.737Z,15.80
2019-03-08T14:55:59.988Z,16.00
2019-03-08T14:58:28.498Z,16.10
2019-03-08T15:00:56.887Z,16.10
2019-03-08T15:03:25.283Z,16.20
2019-03-08T15:05:54.878Z,15.90
2019-03-08T15:08:23.779Z,16.00
2019-03-08T15:10:52.157Z,16.00
2019-03-08T15:13:24.121Z,16.00
2019-03-08T15:15:50.660Z,16.20
2019-03-08T15:18:19.064Z,16.20
2019-03-08T15:20:47.465Z,16.10
2019-03-08T15:23:17.098Z,16.20
2019-03-08T15:25:48.976Z,16.20
2019-03-08T15:28:16.141Z,16.20
2019-03-08T15:30:44.697Z,16.00
2019-03-08T15:33:13.097Z,15.90
2019-03-08T15:35:41.479Z,15.60
2019-03-08T15:38:10.267Z,15.70
2019-03-08T15:40:38.659Z,15.50
2019-03-08T15:43:09.701Z,15.60
2019-03-08T15:45:40.148Z,15.40
2019-03-08T15:48:10.819Z,15.60
2019-03-08T15:50:37.421Z,15.50
2019-03-08T15:53:05.804Z,15.60
2019-03-08T15:55:34.188Z,15.40
2019-03-08T15:58:02.652Z,15.50
2019-03-08T16:00:31.037Z,15.30
2019-03-08T16:02:59.477Z,15.20
2019-03-08T16:05:29.731Z,15.30
2019-03-08T16:08:01.636Z,15.30
2019-03-08T16:10:28.124Z,15.40
2019-03-08T16:12:56.617Z,15.40
2019-03-08T16:15:24.995Z,15.10
2019-03-08T16:17:53.387Z,15.10
2019-03-08T16:20:22.503Z,15.20
2019-03-08T16:22:50.911Z,14.90
2019-03-08T16:25:19.363Z,15.10
2019-03-08T16:27:47.772Z,14.90
2019-03-08T16:30:23.433Z,14.90
2019-03-08T16:32:53.798Z,14.80
2019-03-08T16:35:21.563Z,14.90
2019-03-08T16:37:57.320Z,14.80
2019-03-08T16:40:29.912Z,14.60
2019-03-08T16:42:59.722Z,14.50
2019-03-08T16:45:32.431Z,14.60
2019-03-08T16:48:17.363Z,14.50
2019-03-08T16:50:47.232Z,14.40
2019-03-08T16:53:28.947Z,14.20
2019-03-08T16:56:12.423Z,14.00
2019-03-08T16:58:42.453Z,14.00
2019-03-08T17:01:28.494Z,13.80
2019-03-08T17:04:04.067Z,13.70
2019-03-08T17:06:34.083Z,13.60
2019-03-08T17:09:04.122Z,13.40
2019-03-08T17:11:39.887Z,13.30
2019-03-08T17:14:12.884Z,13.10
2019-03-08T17:16:42.898Z,12.90
2019-03-08T17:19:15.842Z,12.80
2019-03-08T17:21:48.855Z,12.90
2019-03-08T17:24:18.888Z,12.70
2019-03-08T17:27:06.936Z,12.60
2019-03-08T17:29:36.971Z,12.50
2019-03-08T17:32:18.955Z,12.30
2019-03-08T17:34:49.000Z,12.20
2019-03-08T17:37:19.026Z,12.00
2019-03-08T17:39:51.734Z,11.90
2019-03-08T17:42:36.821Z,11.80
2019-03-08T17:45:26.235Z,11.70
2019-03-08T17:48:01.969Z,11.60
2019-03-08T17:50:41.181Z,11.60
2019-03-08T17:53:11.188Z,11.70
2019-03-08T17:55:41.222Z,11.50
2019-03-08T17:58:20.208Z,11.30
2019-03-08T18:01:06.427Z,11.40
2019-03-08T18:03:52.140Z,11.40
2019-03-08T18:06:22.268Z,11.30
2019-03-08T18:09:04.231Z,11.20
2019-03-08T18:11:50.978Z,11.10
2019-03-08T18:14:30.184Z,11.10
2019-03-08T18:17:00.305Z,11.00
2019-03-08T18:19:30.350Z,10.90
2019-03-08T18:22:03.035Z,10.70
2019-03-08T18:24:35.492Z,10.70
2019-03-08T18:27:14.795Z,10.60
2019-03-08T18:29:54.399Z,10.60
2019-03-08T18:32:30.443Z,10.60
2019-03-08T18:35:21.819Z,10.50
2019-03-08T18:38:03.802Z,10.40
2019-03-08T18:40:33.839Z,10.40
2019-03-08T18:43:06.834Z,10.40
2019-03-08T18:45:48.979Z,10.40
2019-03-08T18:48:19.025Z,10.30
2019-03-08T18:50:49.052Z,10.30
2019-03-08T18:53:27.742Z,10.20
2019-03-08T18:56:03.757Z,10.20
2019-03-08T18:58:33.764Z,10.20
2019-03-08T19:01:19.933Z,10.10
2019-03-08T19:04:05.148Z,10.10
2019-03-08T19:06:44.729Z,10.00
2019-03-08T19:09:14.757Z,10.00
2019-03-08T19:11:56.979Z,9.90
2019-03-08T19:14:32.912Z,9.90
2019-03-08T19:17:05.740Z,9.90
2019-03-08T19:19:53.811Z,9.80
2019-03-08T19:22:29.522Z,9.80
2019-03-08T19:24:59.558Z,9.80
2019-03-08T19:27:35.976Z,9.70
2019-03-08T19:30:23.386Z,9.70
2019-03-08T19:33:09.820Z,9.70
2019-03-08T19:35:51.831Z,9.60
2019-03-08T19:38:30.527Z,9.60
2019-03-08T19:41:03.717Z,9.60
2019-03-08T19:43:33.765Z,9.50
2019-03-08T19:46:06.228Z,9.50
2019-03-08T19:48:39.065Z,9.50
2019-03-08T19:51:11.770Z,9.50
2019-03-08T19:53:41.813Z,9.50
2019-03-08T19:56:11.823Z,9.50
2019-03-08T19:58:58.117Z,9.50
2019-03-08T20:01:43.234Z,9.50
2019-03-08T20:04:16.131Z,9.50
2019-03-08T20:07:02.635Z,9.50
2019-03-08T20:09:44.875Z,9.40
2019-03-08T20:12:14.908Z,9.40
2019-03-08T20:15:01.413Z,9.40
2019-03-08T20:17:34.470Z,9.40
2019-03-08T20:20:20.192Z,9.40
2019-03-08T20:22:59.332Z,9.40
2019-03-08T20:25:29.358Z,9.30
2019-03-08T20:28:08.417Z,9.30
2019-03-08T20:30:41.391Z,9.30
2019-03-08T20:33:11.419Z,9.30
2019-03-08T20:35:47.337Z,9.30
2019-03-08T20:38:35.199Z,9.20
2019-03-08T20:41:07.907Z,9.30
2019-03-08T20:43:40.407Z,9.20
2019-03-08T20:46:27.003Z,9.20
2019-03-08T20:48:55.735Z,9.20
2019-03-08T20:51:24.720Z,9.10
2019-03-08T20:53:53.108Z,9.10
2019-03-08T20:56:21.489Z,9.10
2019-03-08T20:58:49.880Z,9.10
2019-03-08T21:01:18.264Z,9.00
2019-03-08T21:03:46.644Z,9.00
2019-03-08T21:06:15.019Z,9.00
2019-03-08T21:08:43.413Z,9.00
2019-03-08T21:11:11.790Z,9.00
2019-03-08T21:13:40.167Z,8.90
2019-03-08T21:16:08.923Z,8.90
2019-03-08T21:18:37.319Z,8.90
2019-03-08T21:21:05.712Z,8.80
2019-03-08T21:23:34.380Z,8.80
2019-03-08T21:26:02.751Z,8.80
2019-03-08T21:28:31.147Z,8.80
2019-03-08T21:30:59.523Z,8.70
2019-03-08T21:33:27.899Z,8.70
2019-03-08T21:35:56.296Z,8.70
2019-03-08T21:38:24.683Z,8.70
2019-03-08T21:40:53.067Z,8.70
2019-03-08T21:43:21.449Z,8.70
2019-03-08T21:45:49.845Z,8.70
2019-03-08T21:48:18.223Z,8.70
2019-03-08T21:50:46.627Z,8.70
2019-03-08T21:53:15.011Z,8.70
2019-03-08T21:55:43.476Z,8.70
2019-03-08T21:58:12.635Z,8.70
2019-03-08T22:00:41.028Z,8.70
2019-03-08T22:03:09.406Z,8.70
2019-03-08T22:05:42.293Z,8.70
2019-03-08T22:08:17.449Z,8.60
2019-03-08T22:10:44.027Z,8.60
2019-03-08T22:13:12.433Z,8.70
2019-03-08T22:15:41.221Z,8.70
2019-03-08T22:18:09.917Z,8.70
2019-03-08T22:20:38.304Z,8.70
2019-03-08T22:23:06.946Z,8.70
2019-03-08T22:25:35.334Z,8.70
2019-03-08T22:28:03.716Z,8.70
2019-03-08T22:30:32.527Z,8.70
2019-03-08T22:33:00.909Z,8.70
2019-03-08T22:35:29.295Z,8.70
2019-03-08T22:37:57.671Z,8.70
2019-03-08T22:40:26.061Z,8.70
2019-03-08T22:42:54.445Z,8.70
2019-03-08T22:45:22.822Z,8.70
2019-03-08T22:47:51.207Z,8.70
2019-03-08T22:50:20.059Z,8.70
2019-03-08T22:52:48.448Z,8.70
2019-03-08T22:55:16.842Z,8.70
2019-03-08T22:57:45.229Z,8.60
2019-03-08T23:00:21.673Z,8.60
2019-03-08T23:02:50.386Z,8.60
2019-03-08T23:05:18.771Z,8.50
2019-03-08T23:07:47.151Z,8.50
2019-03-08T23:10:15.524Z,8.50
2019-03-08T23:12:43.910Z,8.50
2019-03-08T23:15:12.280Z,8.50
2019-03-08T23:17:40.663Z,8.40
2019-03-08T23:20:09.131Z,8.40
2019-03-08T23:22:37.510Z,8.40
2019-03-08T23:25:05.892Z,8.40
2019-03-08T23:27:35.926Z,8.40
2019-03-08T23:30:07.085Z,8.50
2019-03-08T23:32:36.740Z,8.40
2019-03-08T23:35:07.055Z,8.40
2019-03-08T23:37:35.461Z,8.40
2019-03-08T23:40:05.211Z,8.40
2019-03-08T23:42:33.596Z,8.40
2019-03-08T23:45:01.975Z,8.40
2019-03-08T23:47:30.407Z,8.40
2019-03-08T23:49:58.779Z,8.40
2019-03-08T23:52:27.172Z,8.50
2019-03-08T23:54:55.923Z,8.40
2019-03-08T23:57:24.319Z,8.40
2019-03-08T23:59:52.696Z,8.40
